createdAt,value
2023-03-30T00:00:19.303Z,13.46
2023-03-30T00:02:50.833Z,13.37
2023-03-30T00:05:18.286Z,13.45
2023-03-30T00:07:45.722Z,13.50
2023-03-30T00:10:15.373Z,13.37
2023-03-30T00:12:43.713Z,13.64
2023-03-30T00:15:12.408Z,13.42
2023-03-30T00:17:39.620Z,13.30
2023-03-30T00:20:11.746Z,13.35
2023-03-30T00:22:42.164Z,13.29
2023-03-30T00:25:11.024Z,13.61
2023-03-30T00:27:37.822Z,13.18
2023-03-30T00:30:05.860Z,13.12
2023-03-30T00:32:32.436Z,13.39
2023-03-30T00:34:58.891Z,13.53
2023-03-30T00:37:25.773Z,13.40
2023-03-30T00:39:53.330Z,13.30
2023-03-30T00:42:21.665Z,13.22
2023-03-30T00:45:07.444Z,13.02
2023-03-30T00:47:41.405Z,13.03
2023-03-30T00:50:09.625Z,13.13
2023-03-30T00:52:37.296Z,13.22
2023-03-30T00:55:07.732Z,13.03
2023-03-30T00:57:37.260Z,13.00
2023-03-30T01:00:08.393Z,13.03
2023-03-30T01:02:41.535Z,12.99
2023-03-30T01:05:08.864Z,12.93
2023-03-30T01:07:37.203Z,13.22
2023-03-30T01:10:04.422Z,12.93
2023-03-30T01:12:31.524Z,13.13
2023-03-30T01:14:57.988Z,13.32
2023-03-30T01:17:37.240Z,13.14
2023-03-30T01:20:36.204Z,13.34
2023-03-30T01:23:37.580Z,13.52
2023-03-30T01:26:09.772Z,13.21
2023-03-30T01:28:39.167Z,13.00
2023-03-30T01:31:25.464Z,12.92
2023-03-30T01:34:06.332Z,12.71
2023-03-30T01:36:41.844Z,12.84
2023-03-30T01:39:23.421Z,12.83
2023-03-30T01:42:12.876Z,12.74
2023-03-30T01:44:48.007Z,13.27
2023-03-30T01:47:38.256Z,13.13
2023-03-30T01:50:11.669Z,13.29
2023-03-30T01:53:00.209Z,12.93
2023-03-30T01:55:36.781Z,13.18
2023-03-30T01:58:21.574Z,13.05
2023-03-30T02:00:50.422Z,13.15
2023-03-30T02:03:22.888Z,13.35
2023-03-30T02:05:54.040Z,13.03
2023-03-30T02:08:25.385Z,13.36
2023-03-30T02:10:55.404Z,13.34
2023-03-30T02:13:23.489Z,13.23
2023-03-30T02:15:56.399Z,13.17
2023-03-30T02:18:22.876Z,13.11
2023-03-30T02:20:49.490Z,13.08
2023-03-30T02:23:19.796Z,13.36
2023-03-30T02:25:46.598Z,13.30
2023-03-30T02:28:12.988Z,13.31
2023-03-30T02:30:43.148Z,13.22
2023-03-30T02:33:29.236Z,12.84
2023-03-30T02:36:07.997Z,12.78
2023-03-30T02:39:05.038Z,12.81
2023-03-30T02:42:08.846Z,12.71
2023-03-30T02:44:51.138Z,12.73
2023-03-30T02:47:52.483Z,12.94
2023-03-30T02:50:57.190Z,12.71
2023-03-30T02:53:29.602Z,12.73
2023-03-30T02:56:29.053Z,12.66
2023-03-30T02:59:13.084Z,12.77
2023-03-30T03:01:50.211Z,12.74
2023-03-30T03:04:19.152Z,12.68
2023-03-30T03:06:46.157Z,12.56
2023-03-30T03:09:12.548Z,12.38
2023-03-30T03:11:38.966Z,12.22
2023-03-30T03:14:05.543Z,12.64
2023-03-30T03:16:32.002Z,12.53
2023-03-30T03:18:58.484Z,12.64
2023-03-30T03:21:24.879Z,12.53
2023-03-30T03:23:51.498Z,12.74
2023-03-30T03:26:18.550Z,12.88
2023-03-30T03:28:44.987Z,12.70
2023-03-30T03:31:12.224Z,12.88
2023-03-30T03:33:38.704Z,12.91
2023-03-30T03:36:05.783Z,13.01
2023-03-30T03:38:32.741Z,13.16
2023-03-30T03:40:59.706Z,13.15
2023-03-30T03:43:26.528Z,13.26
2023-03-30T03:45:53.436Z,13.06
2023-03-30T03:48:21.493Z,13.24
2023-03-30T03:50:54.114Z,13.35
2023-03-30T03:53:21.529Z,13.26
2023-03-30T03:55:48.122Z,13.29
2023-03-30T03:58:15.925Z,13.51
2023-03-30T04:00:42.616Z,13.43
2023-03-30T04:03:09.358Z,13.56
2023-03-30T04:05:35.923Z,13.66
2023-03-30T04:08:02.773Z,13.50
2023-03-30T04:10:29.253Z,13.50
2023-03-30T04:12:56.960Z,13.73
2023-03-30T04:15:24.312Z,13.67
2023-03-30T04:17:57.865Z,13.43
2023-03-30T04:20:28.837Z,13.78
2023-03-30T04:22:55.355Z,13.89
2023-03-30T04:25:25.730Z,13.93
2023-03-30T04:27:52.807Z,13.97
2023-03-30T04:30:22.357Z,13.97
2023-03-30T04:33:02.782Z,13.70
2023-03-30T04:35:34.320Z,14.03
2023-03-30T04:38:02.478Z,13.17
2023-03-30T04:40:29.485Z,13.41
2023-03-30T04:43:02.054Z,13.55
2023-03-30T04:45:32.111Z,13.46
2023-03-30T04:47:58.811Z,13.47
2023-03-30T04:50:26.041Z,13.94
2023-03-30T04:52:52.489Z,14.05
2023-03-30T04:55:18.944Z,14.18
2023-03-30T04:57:45.396Z,14.20
2023-03-30T05:00:13.634Z,14.11
2023-03-30T05:02:40.292Z,14.18
2023-03-30T05:05:07.287Z,14.09
2023-03-30T05:07:33.835Z,14.25
2023-03-30T05:10:00.366Z,14.15
2023-03-30T05:12:26.838Z,13.82
2023-03-30T05:14:53.346Z,14.10
2023-03-30T05:17:19.812Z,13.92
2023-03-30T05:19:47.246Z,13.85
2023-03-30T05:22:15.496Z,14.25
2023-03-30T05:24:41.925Z,14.06
2023-03-30T05:27:08.404Z,14.18
2023-03-30T05:29:34.853Z,14.58
2023-03-30T05:32:01.411Z,14.55
2023-03-30T05:34:27.821Z,14.55
2023-03-30T05:36:54.314Z,14.63
2023-03-30T05:39:21.079Z,14.57
2023-03-30T05:41:47.527Z,14.72
2023-03-30T05:44:14.059Z,14.88
2023-03-30T05:46:40.510Z,14.92
2023-03-30T05:49:07.216Z,15.03
2023-03-30T05:51:33.692Z,15.14
2023-03-30T05:54:00.469Z,15.21
2023-03-30T05:56:27.271Z,15.25
2023-03-30T05:58:53.704Z,15.42
2023-03-30T06:01:21.309Z,15.45
2023-03-30T06:03:47.998Z,15.58
2023-03-30T06:06:14.628Z,15.59
2023-03-30T06:08:41.907Z,15.96
2023-03-30T06:11:08.402Z,15.88
2023-03-30T06:13:34.822Z,15.25
2023-03-30T06:16:03.117Z,15.99
2023-03-30T06:18:30.323Z,15.86
2023-03-30T06:20:57.431Z,15.72
2023-03-30T06:23:23.989Z,16.20
2023-03-30T06:25:53.164Z,15.85
2023-03-30T06:28:20.423Z,16.16
2023-03-30T06:30:49.124Z,15.53
2023-03-30T06:33:16.762Z,16.08
2023-03-30T06:35:51.257Z,16.59
2023-03-30T06:38:19.149Z,16.12
2023-03-30T06:40:45.924Z,15.82
2023-03-30T06:43:18.332Z,16.53
2023-03-30T06:45:55.993Z,16.24
2023-03-30T06:48:26.733Z,16.28
2023-03-30T06:50:54.265Z,16.19
2023-03-30T06:53:22.012Z,16.38
2023-03-30T06:55:53.535Z,16.68
2023-03-30T06:58:20.222Z,16.40
2023-03-30T07:00:47.088Z,16.54
2023-03-30T07:03:13.768Z,16.33
2023-03-30T07:05:40.354Z,17.21
2023-03-30T07:08:08.167Z,16.76
2023-03-30T07:10:34.744Z,16.69
2023-03-30T07:13:01.270Z,16.32
2023-03-30T07:15:27.905Z,17.31
2023-03-30T07:17:54.543Z,17.99
2023-03-30T07:20:21.064Z,17.66
2023-03-30T07:22:47.598Z,17.96
2023-03-30T07:25:14.414Z,17.46
2023-03-30T07:27:41.027Z,17.19
2023-03-30T07:30:20.547Z,17.97
2023-03-30T07:32:50.241Z,18.26
2023-03-30T07:35:17.008Z,17.83
2023-03-30T07:37:43.587Z,18.56
2023-03-30T07:40:11.704Z,18.08
2023-03-30T07:42:38.516Z,17.95
2023-03-30T07:45:06.363Z,17.99
2023-03-30T07:47:33.054Z,17.81
2023-03-30T07:49:59.549Z,18.01
2023-03-30T07:52:26.303Z,17.84
2023-03-30T07:54:54.597Z,18.42
2023-03-30T07:57:22.137Z,18.00
2023-03-30T07:59:49.036Z,18.05
2023-03-30T08:02:16.856Z,18.02
2023-03-30T08:04:46.737Z,18.09
2023-03-30T08:07:14.353Z,18.60
2023-03-30T08:09:41.102Z,18.51
2023-03-30T08:12:07.735Z,18.07
2023-03-30T08:14:34.150Z,18.12
2023-03-30T08:17:00.709Z,18.64
2023-03-30T08:19:28.419Z,17.83
2023-03-30T08:21:57.080Z,18.25
2023-03-30T08:24:23.695Z,18.07
2023-03-30T08:26:50.252Z,18.43
2023-03-30T08:29:17.052Z,18.42
2023-03-30T08:31:43.738Z,18.37
2023-03-30T08:34:10.257Z,18.56
2023-03-30T08:36:36.671Z,18.49
2023-03-30T08:39:04.847Z,19.08
2023-03-30T08:42:20.766Z,20.21
2023-03-30T08:44:54.468Z,21.05
2023-03-30T08:47:34.879Z,19.67
2023-03-30T08:50:25.967Z,19.10
2023-03-30T08:52:52.771Z,19.59
2023-03-30T08:55:24.430Z,18.99
2023-03-30T08:57:51.221Z,19.26
2023-03-30T09:00:29.269Z,19.38
2023-03-30T09:03:06.990Z,19.27
2023-03-30T09:05:38.804Z,19.99
2023-03-30T09:08:20.375Z,19.02
2023-03-30T09:10:56.410Z,19.57
2023-03-30T09:13:28.254Z,19.36
2023-03-30T09:16:06.337Z,19.69
2023-03-30T09:18:36.380Z,20.45
2023-03-30T09:21:06.288Z,19.77
2023-03-30T09:23:33.957Z,20.10
2023-03-30T09:26:22.399Z,19.82
2023-03-30T09:29:03.742Z,21.48
2023-03-30T09:31:41.234Z,19.93
2023-03-30T09:34:27.595Z,20.36
2023-03-30T09:37:06.892Z,19.91
2023-03-30T09:39:35.383Z,19.11
2023-03-30T09:42:23.634Z,19.33
2023-03-30T09:45:15.312Z,20.62
2023-03-30T09:47:42.388Z,19.92
2023-03-30T09:50:18.144Z,20.02
2023-03-30T09:53:07.204Z,20.35
2023-03-30T09:55:36.422Z,20.42
2023-03-30T09:58:13.687Z,19.58
2023-03-30T10:00:40.456Z,20.19
2023-03-30T10:03:08.116Z,20.24
2023-03-30T10:05:36.522Z,19.88
2023-03-30T10:08:19.455Z,19.71
2023-03-30T10:10:46.240Z,20.78
2023-03-30T10:13:16.618Z,20.58
2023-03-30T10:15:46.224Z,20.12
2023-03-30T10:18:18.471Z,19.90
2023-03-30T10:20:53.280Z,19.48
2023-03-30T10:23:22.965Z,20.38
2023-03-30T10:25:52.138Z,20.38
2023-03-30T10:28:30.786Z,19.98
2023-03-30T10:31:05.387Z,19.97
2023-03-30T10:33:40.152Z,19.13
2023-03-30T10:36:07.787Z,20.41
2023-03-30T10:38:35.057Z,20.37
2023-03-30T10:41:08.486Z,19.28
2023-03-30T10:43:36.119Z,19.79
2023-03-30T10:46:20.041Z,20.03
2023-03-30T10:48:59.288Z,19.77
2023-03-30T10:51:56.023Z,20.64
2023-03-30T10:54:33.829Z,19.75
2023-03-30T10:57:08.617Z,20.32
2023-03-30T10:59:54.108Z,21.19
2023-03-30T11:02:35.963Z,20.97
2023-03-30T11:05:14.367Z,20.17
2023-03-30T11:07:47.191Z,20.38
2023-03-30T11:10:32.884Z,20.58
2023-03-30T11:13:06.499Z,19.23
2023-03-30T11:15:49.521Z,18.12
2023-03-30T11:18:31.084Z,17.84
2023-03-30T11:21:01.663Z,17.12
2023-03-30T11:23:39.923Z,16.98
2023-03-30T11:26:11.611Z,16.95
2023-03-30T11:29:02.253Z,16.88
2023-03-30T11:31:47.440Z,17.16
2023-03-30T11:34:47.742Z,16.72
2023-03-30T11:37:43.822Z,16.89
2023-03-30T11:40:11.759Z,16.47
2023-03-30T11:42:38.311Z,16.46
2023-03-30T11:45:50.525Z,16.82
2023-03-30T11:48:38.234Z,15.02
2023-03-30T11:51:21.931Z,15.24
2023-03-30T11:53:54.762Z,15.26
2023-03-30T11:56:34.489Z,15.92
2023-03-30T11:59:16.988Z,16.48
2023-03-30T12:01:46.356Z,16.43
2023-03-30T12:04:16.226Z,16.67
2023-03-30T12:07:15.202Z,16.31
2023-03-30T12:09:53.558Z,16.80
2023-03-30T12:12:33.570Z,15.96
2023-03-30T12:15:06.848Z,16.08
2023-03-30T12:17:50.542Z,17.43
2023-03-30T12:20:38.350Z,17.88
2023-03-30T12:23:47.658Z,17.86
2023-03-30T12:26:37.858Z,17.04
2023-03-30T12:29:44.333Z,16.93
2023-03-30T12:31:58.688Z,16.48
2023-03-30T12:34:31.945Z,17.47
2023-03-30T12:37:12.940Z,16.58
2023-03-30T12:40:06.819Z,17.21
2023-03-30T12:42:39.331Z,16.72
2023-03-30T12:45:32.001Z,17.13
2023-03-30T12:48:07.674Z,17.43
2023-03-30T12:50:40.002Z,17.63
2023-03-30T12:53:43.835Z,17.60
2023-03-30T12:56:17.694Z,17.59
2023-03-30T12:59:02.302Z,17.47
2023-03-30T13:01:37.892Z,18.63
2023-03-30T13:04:12.055Z,17.88
2023-03-30T13:06:48.191Z,18.07
2023-03-30T13:09:14.638Z,18.01
2023-03-30T13:12:24.777Z,18.41
2023-03-30T13:15:32.377Z,18.25
2023-03-30T13:18:22.758Z,17.47
2023-03-30T13:20:55.637Z,17.49
2023-03-30T13:23:22.131Z,17.65
2023-03-30T13:25:57.577Z,17.93
2023-03-30T13:28:49.028Z,18.35
2023-03-30T13:31:36.222Z,17.97
2023-03-30T13:34:36.732Z,18.17
2023-03-30T13:37:09.208Z,17.86
2023-03-30T13:39:54.433Z,17.61
2023-03-30T13:43:02.250Z,17.62
2023-03-30T13:45:50.714Z,16.96
2023-03-30T13:48:54.691Z,17.58
2023-03-30T13:51:25.938Z,17.82
2023-03-30T13:53:57.385Z,18.18
2023-03-30T13:56:25.891Z,18.06
2023-03-30T13:59:11.812Z,17.85
2023-03-30T14:01:39.823Z,18.30
2023-03-30T14:04:11.863Z,17.56
2023-03-30T14:06:44.152Z,18.46
2023-03-30T14:09:19.042Z,17.64
2023-03-30T14:11:49.460Z,18.48
2023-03-30T14:14:27.773Z,19.01
2023-03-30T14:16:55.583Z,18.40
2023-03-30T14:20:05.932Z,17.85
2023-03-30T14:22:40.598Z,18.07
2023-03-30T14:25:23.033Z,17.51
2023-03-30T14:27:49.554Z,17.62
2023-03-30T14:30:24.851Z,18.33
2023-03-30T14:33:09.025Z,18.15
2023-03-30T14:35:41.899Z,18.51
2023-03-30T14:38:17.037Z,18.07
2023-03-30T14:40:44.196Z,18.03
2023-03-30T14:43:16.868Z,17.78
2023-03-30T14:45:44.173Z,17.37
2023-03-30T14:48:24.833Z,17.18
2023-03-30T14:50:51.357Z,17.22
2023-03-30T14:53:26.219Z,17.58
2023-03-30T14:55:57.011Z,17.80
2023-03-30T14:58:26.567Z,16.55
2023-03-30T15:00:57.471Z,16.59
2023-03-30T15:03:33.540Z,16.69
2023-03-30T15:06:02.281Z,17.05
2023-03-30T15:08:32.630Z,17.23
2023-03-30T15:11:07.960Z,17.62
2023-03-30T15:13:41.942Z,17.55
2023-03-30T15:16:14.632Z,18.04
2023-03-30T15:18:41.568Z,17.02
2023-03-30T15:21:11.057Z,17.92
2023-03-30T15:23:41.411Z,17.72
2023-03-30T15:26:08.870Z,17.40
2023-03-30T15:28:42.887Z,18.53
2023-03-30T15:31:12.837Z,17.64
2023-03-30T15:33:44.374Z,17.57
2023-03-30T15:36:17.252Z,17.42
2023-03-30T15:38:54.803Z,17.37
2023-03-30T15:41:23.784Z,16.75
2023-03-30T15:43:59.150Z,17.64
2023-03-30T15:46:27.978Z,17.11
2023-03-30T15:48:56.531Z,17.30
2023-03-30T15:51:38.602Z,17.06
2023-03-30T15:54:13.547Z,16.69
2023-03-30T15:56:41.818Z,17.00
2023-03-30T15:59:25.264Z,17.48
2023-03-30T16:02:01.069Z,16.46
2023-03-30T16:04:31.486Z,17.17
2023-03-30T16:06:58.167Z,17.36
2023-03-30T16:09:24.635Z,16.74
2023-03-30T16:11:51.200Z,16.58
2023-03-30T16:14:22.721Z,15.95
2023-03-30T16:16:49.240Z,15.95
2023-03-30T16:19:18.412Z,15.77
2023-03-30T16:21:45.631Z,16.15
2023-03-30T16:24:12.767Z,15.88
2023-03-30T16:26:39.698Z,15.96
2023-03-30T16:29:18.073Z,15.55
2023-03-30T16:31:44.557Z,16.23
2023-03-30T16:34:11.055Z,15.10
2023-03-30T16:36:37.480Z,15.75
2023-03-30T16:39:06.741Z,16.24
2023-03-30T16:41:33.221Z,16.14
2023-03-30T16:43:59.722Z,15.80
2023-03-30T16:46:26.236Z,16.19
2023-03-30T16:48:52.694Z,15.00
2023-03-30T16:51:19.783Z,15.59
2023-03-30T16:53:46.433Z,14.41
2023-03-30T16:56:17.385Z,14.93
2023-03-30T16:58:45.961Z,14.88
2023-03-30T17:01:13.898Z,15.23
2023-03-30T17:03:40.575Z,15.68
2023-03-30T17:06:07.980Z,15.23
2023-03-30T17:08:34.816Z,14.78
2023-03-30T17:11:04.817Z,15.44
2023-03-30T17:13:32.055Z,14.86
2023-03-30T17:16:01.070Z,14.90
2023-03-30T17:21:00.804Z,14.88
2023-03-30T17:23:32.341Z,15.20
2023-03-30T17:26:00.573Z,14.94
2023-03-30T17:28:28.837Z,14.50
2023-03-30T17:30:57.624Z,14.49
2023-03-30T17:33:24.988Z,14.69
2023-03-30T17:35:55.211Z,15.14
2023-03-30T17:38:22.522Z,14.56
2023-03-30T17:40:49.739Z,14.79
2023-03-30T17:43:16.657Z,14.86
2023-03-30T17:45:43.599Z,14.46
2023-03-30T17:48:16.505Z,14.90
2023-03-30T17:50:46.253Z,14.64
2023-03-30T17:53:17.248Z,14.98
2023-03-30T17:55:46.110Z,15.01
2023-03-30T17:58:18.528Z,14.46
2023-03-30T18:00:46.902Z,14.23
2023-03-30T18:03:18.552Z,14.49
2023-03-30T18:05:46.216Z,14.57
2023-03-30T18:08:17.248Z,14.37
2023-03-30T18:11:01.890Z,14.61
2023-03-30T18:13:30.428Z,14.52
2023-03-30T18:15:58.545Z,15.09
2023-03-30T18:18:28.451Z,14.47
2023-03-30T18:20:57.081Z,14.60
2023-03-30T18:23:23.878Z,14.51
2023-03-30T18:25:51.111Z,15.18
2023-03-30T18:28:26.024Z,14.63
2023-03-30T18:30:55.315Z,15.04
2023-03-30T18:33:22.034Z,15.32
2023-03-30T18:35:50.352Z,14.84
2023-03-30T18:38:20.296Z,14.84
2023-03-30T18:40:57.650Z,15.21
2023-03-30T18:43:26.239Z,15.13
2023-03-30T18:45:52.880Z,15.28
2023-03-30T18:48:21.703Z,14.87
2023-03-30T18:50:53.565Z,15.20
2023-03-30T18:53:22.376Z,14.83
2023-03-30T18:55:53.646Z,14.85
2023-03-30T18:58:22.927Z,14.62
2023-03-30T19:00:51.555Z,15.48
2023-03-30T19:03:19.712Z,15.26
2023-03-30T19:05:46.325Z,15.51
2023-03-30T19:08:14.882Z,15.53
2023-03-30T19:10:43.003Z,14.86
2023-03-30T19:13:14.209Z,15.23
2023-03-30T19:15:41.397Z,15.03
2023-03-30T19:18:08.444Z,14.76
2023-03-30T19:20:37.994Z,14.84
2023-03-30T19:23:04.526Z,15.36
2023-03-30T19:25:31.467Z,15.35
2023-03-30T19:28:03.770Z,14.87
2023-03-30T19:30:36.123Z,15.00
2023-03-30T19:33:12.319Z,14.89
2023-03-30T19:35:44.148Z,15.22
2023-03-30T19:38:10.737Z,15.60
2023-03-30T19:40:40.404Z,14.71
2023-03-30T19:43:07.624Z,14.94
2023-03-30T19:45:34.070Z,14.07
2023-03-30T19:48:00.584Z,14.48
2023-03-30T19:50:29.495Z,14.70
2023-03-30T19:52:56.747Z,14.86
2023-03-30T19:55:23.360Z,14.67
2023-03-30T19:57:49.915Z,15.37
2023-03-30T20:00:18.104Z,14.74
2023-03-30T20:02:50.689Z,14.77
2023-03-30T20:05:18.128Z,15.50
2023-03-30T20:07:45.955Z,14.90
2023-03-30T20:10:16.483Z,14.55
2023-03-30T20:12:43.043Z,14.52
2023-03-30T20:15:10.079Z,14.81
2023-03-30T20:17:38.216Z,15.20
2023-03-30T20:20:08.562Z,14.90
2023-03-30T20:22:37.057Z,14.51
2023-03-30T20:25:07.304Z,14.53
2023-03-30T20:27:35.146Z,14.43
2023-03-30T20:30:02.389Z,15.10
2023-03-30T20:32:28.861Z,15.44
2023-03-30T20:34:55.585Z,15.59
2023-03-30T20:37:22.203Z,14.58
2023-03-30T20:39:51.771Z,14.38
2023-03-30T20:42:25.862Z,14.44
2023-03-30T20:44:53.365Z,15.26
2023-03-30T20:47:23.117Z,14.63
2023-03-30T20:49:49.634Z,15.22
2023-03-30T20:52:16.679Z,14.84
2023-03-30T20:54:44.340Z,15.36
2023-03-30T20:57:11.371Z,14.49
2023-03-30T20:59:39.286Z,15.48
2023-03-30T21:02:05.795Z,15.48
2023-03-30T21:04:33.689Z,14.65
2023-03-30T21:07:00.802Z,15.44
2023-03-30T21:09:27.499Z,15.09
2023-03-30T21:11:53.944Z,14.41
2023-03-30T21:14:20.386Z,14.14
2023-03-30T21:16:46.850Z,13.95
2023-03-30T21:19:13.314Z,14.27
2023-03-30T21:21:39.816Z,15.17
2023-03-30T21:24:08.688Z,14.91
2023-03-30T21:26:35.337Z,15.45
2023-03-30T21:29:01.812Z,14.92
2023-03-30T21:31:28.257Z,15.06
2023-03-30T21:33:54.828Z,15.43
2023-03-30T21:36:21.517Z,15.35
2023-03-30T21:38:48.050Z,14.15
2023-03-30T21:41:20.904Z,15.13
2023-03-30T21:43:48.159Z,15.34
2023-03-30T21:46:17.904Z,14.42
2023-03-30T21:48:46.195Z,14.50
2023-03-30T21:51:15.692Z,14.67
2023-03-30T21:53:43.368Z,14.77
2023-03-30T21:56:11.618Z,14.62
2023-03-30T21:58:38.920Z,15.12
2023-03-30T22:01:12.303Z,14.97
2023-03-30T22:03:41.215Z,14.05
2023-03-30T22:06:10.275Z,13.97
2023-03-30T22:08:37.057Z,13.97
2023-03-30T22:11:11.428Z,14.22
2023-03-30T22:13:37.851Z,14.36
2023-03-30T22:16:28.091Z,13.79
2023-03-30T22:18:54.993Z,14.69
2023-03-30T22:21:29.069Z,14.90
2023-03-30T22:23:55.614Z,15.03
2023-03-30T22:26:22.447Z,14.68
2023-03-30T22:28:49.039Z,15.00
2023-03-30T22:31:15.802Z,14.64
2023-03-30T22:33:42.555Z,14.87
2023-03-30T22:36:15.143Z,14.28
2023-03-30T22:38:42.358Z,14.09
2023-03-30T22:41:10.265Z,14.10
2023-03-30T22:43:36.970Z,14.74
2023-03-30T22:46:05.536Z,14.82
2023-03-30T22:48:32.800Z,13.58
2023-03-30T22:51:08.171Z,14.62
2023-03-30T22:53:35.369Z,13.63
2023-03-30T22:56:02.040Z,14.30
2023-03-30T22:58:28.503Z,13.67
2023-03-30T23:01:02.174Z,14.22
2023-03-30T23:03:28.988Z,14.74
2023-03-30T23:05:56.143Z,14.55
2023-03-30T23:08:23.872Z,15.19
2023-03-30T23:10:53.826Z,14.87
2023-03-30T23:13:20.254Z,14.32
2023-03-30T23:15:48.465Z,14.58
2023-03-30T23:18:15.678Z,14.10
2023-03-30T23:20:46.422Z,15.02
2023-03-30T23:23:13.936Z,13.97
2023-03-30T23:25:49.296Z,15.05
2023-03-30T23:28:16.452Z,14.65
2023-03-30T23:30:44.620Z,14.64
2023-03-30T23:33:11.967Z,14.70
2023-03-30T23:35:38.433Z,14.28
2023-03-30T23:38:04.869Z,13.87
2023-03-30T23:40:31.286Z,14.76
2023-03-30T23:42:57.740Z,14.49
2023-03-30T23:45:24.201Z,14.69
2023-03-30T23:47:50.665Z,13.52
2023-03-30T23:50:17.167Z,14.11
2023-03-30T23:52:43.598Z,14.41
2023-03-30T23:55:10.701Z,14.75
2023-03-30T23:57:37.113Z,14.49
